Friday, February 23, 2018, 7:58 PM GMT
Back to Local

CZBF, Bathurst Airport Aviation Weather Reporting Station

Location: , , Canada Lat: 47.633
Local Time: 7:58 PM GMT (19:58 GMT) Lon: -65.75
Time Zone: GMT Elev: 193 ft

Show me the last for .
Show Decoded

2018-02-23 19:00 METAR CZBF 231900Z 29005KT 260V040 15SM FEW150 BKN220 M01/M15 A3045 RMK AC1CI7
                 AC TR PRESFR SLP317 =
2018-02-23 18:00 METAR CZBF 231800Z 26010KT 170V290 15SM BKN220 M02/M14 A3050 RMK CI5 PRESFR
                 SLP335 =
2018-02-23 17:00 METAR CZBF 231700Z 25004KT 180V270 15SM FEW220 M03/M14 A3057 RMK CI1 SLP359 =
2018-02-23 16:00 METAR CZBF 231600Z 29006KT 210V330 15SM FEW220 M04/M14 A3061 RMK CI1 CI TR
                 SLP373 =
2018-02-23 15:00 METAR CZBF 231500Z VRB02KT 15SM FEW220 M06/M15 A3064 RMK CI1 CI TR SLP382 =
2018-02-23 14:00 METAR CZBF 231400Z 31005KT 270V350 15SM FEW220 M07/M15 A3066 RMK CI1 CI TR
                 SLP387 =
2018-02-23 13:00 METAR CZBF 231300Z 27005KT 240V310 15SM SKC M10/M16 A3068 RMK SLP396 =
2018-02-23 12:00 METAR CZBF 231200Z 00000KT 15SM SKC M17/M19 A3068 RMK SLP397 =
2018-02-23 11:00 METAR CZBF 231100Z 26005KT 15SM SKC M15/M18 A3067 RMK SLP393 =
2018-02-23 10:00 METAR CZBF 231000Z 27006KT 15SM SKC M14/M17 A3066 RMK SLP391 =
2018-02-23 09:00 METAR CZBF 230900Z 27006KT 15SM SKC M15/M18 A3067 RMK SLP393 =
2018-02-23 08:00 METAR CZBF 230800Z 23004KT 8SM SKC M19/M21 A3068 RMK SLP395 =
2018-02-23 07:00 METAR CZBF 230700Z 17003KT 15SM SKC M19/M21 A3068 RMK SLP395 =
2018-02-23 06:00 METAR CZBF 230600Z VRB02KT 15SM SKC M16/M20 A3068 RMK SLP396 =
2018-02-23 05:00 METAR CZBF 230500Z 25004KT 15SM SKC M13/M17 A3066 RMK SLP389 =
2018-02-23 04:00 METAR CZBF 230400Z 27004KT 15SM SKC M12/M17 A3064 RMK SLP382 =
2018-02-23 03:00 METAR CZBF 230300Z 25004KT 15SM SKC M11/M18 A3064 RMK SLP382 =
2018-02-23 02:00 METAR CZBF 230200Z 00000KT 15SM SKC M10/M18 A3062 RMK SLP377 =
2018-02-23 01:00 METAR CZBF 230100Z VRB02KT 15SM SKC M10/M17 A3061 RMK SLP373 =
2018-02-23 00:00 METAR CZBF 230000Z 30004KT 270V340 15SM SKC M08/M17 A3059 RMK SLP367 =
2018-02-22 23:00 METAR CZBF 222300Z VRB02KT 15SM FEW200 M08/M15 A3058 RMK CC1 SLP362 =
2018-02-22 22:00 METAR CZBF 222200Z 27005KT 15SM SCT160 BKN210 BKN230 M06/M16 A3056 RMK AC3CC2CI2
                 SLP355 =
2018-02-22 21:00 METAR CZBF 222100Z 29007G16KT 250V320 15SM OVC160 M05/M16 A3055 RMK AS8 SLP353 =
2018-02-22 20:00 METAR CZBF 222000Z 29011G18KT 15SM OVC220 M05/M16 A3054 RMK CS8 HALO SLP347 =

Support USWX by starting your Amazon purchase here.